sensor_id;sensor_type;location;lat;lon;timestamp;P1;durP1;ratioP1;P2;durP2;ratioP2
78752;SDS011;68072;51.688;7.842;2023-04-20T00:00:48;4.72;;;3.15;;
78752;SDS011;68072;51.688;7.842;2023-04-20T00:03:14;6.00;;;2.80;;
78752;SDS011;68072;51.688;7.842;2023-04-20T00:05:39;4.47;;;2.88;;
78752;SDS011;68072;51.688;7.842;2023-04-20T00:08:04;5.05;;;2.97;;
78752;SDS011;68072;51.688;7.842;2023-04-20T00:10:32;4.60;;;3.00;;
78752;SDS011;68072;51.688;7.842;2023-04-20T00:12:57;5.13;;;3.05;;
78752;SDS011;68072;51.688;7.842;2023-04-20T00:15:22;4.82;;;2.72;;
78752;SDS011;68072;51.688;7.842;2023-04-20T00:17:48;3.63;;;2.65;;
78752;SDS011;68072;51.688;7.842;2023-04-20T00:20:13;3.35;;;2.40;;
78752;SDS011;68072;51.688;7.842;2023-04-20T00:22:39;4.50;;;3.00;;
78752;SDS011;68072;51.688;7.842;2023-04-20T00:25:05;4.75;;;2.80;;
78752;SDS011;68072;51.688;7.842;2023-04-20T00:27:32;5.82;;;2.80;;
78752;SDS011;68072;51.688;7.842;2023-04-20T00:29:58;4.63;;;2.70;;
78752;SDS011;68072;51.688;7.842;2023-04-20T00:34:59;3.25;;;2.70;;
78752;SDS011;68072;51.688;7.842;2023-04-20T00:37:25;6.95;;;3.03;;
78752;SDS011;68072;51.688;7.842;2023-04-20T00:39:50;3.97;;;2.83;;
78752;SDS011;68072;51.688;7.842;2023-04-20T00:42:16;4.38;;;2.25;;
78752;SDS011;68072;51.688;7.842;2023-04-20T00:44:43;2.58;;;2.38;;
78752;SDS011;68072;51.688;7.842;2023-04-20T00:47:09;4.07;;;2.80;;
78752;SDS011;68072;51.688;7.842;2023-04-20T00:49:34;3.55;;;2.70;;
78752;SDS011;68072;51.688;7.842;2023-04-20T00:52:00;4.32;;;2.70;;
78752;SDS011;68072;51.688;7.842;2023-04-20T00:54:26;5.65;;;2.40;;
78752;SDS011;68072;51.688;7.842;2023-04-20T00:59:17;3.47;;;2.58;;
78752;SDS011;68072;51.688;7.842;2023-04-20T01:01:43;2.92;;;2.08;;
78752;SDS011;68072;51.688;7.842;2023-04-20T01:04:08;4.05;;;2.20;;
78752;SDS011;68072;51.688;7.842;2023-04-20T01:06:34;5.40;;;2.63;;
78752;SDS011;68072;51.688;7.842;2023-04-20T01:08:59;7.47;;;3.00;;
78752;SDS011;68072;51.688;7.842;2023-04-20T01:11:25;3.40;;;2.47;;
78752;SDS011;68072;51.688;7.842;2023-04-20T01:13:51;2.50;;;2.30;;
78752;SDS011;68072;51.688;7.842;2023-04-20T01:16:16;2.58;;;2.25;;
78752;SDS011;68072;51.688;7.842;2023-04-20T01:18:45;2.30;;;2.10;;
78752;SDS011;68072;51.688;7.842;2023-04-20T01:21:12;3.50;;;2.47;;
78752;SDS011;68072;51.688;7.842;2023-04-20T01:26:05;3.10;;;2.05;;
78752;SDS011;68072;51.688;7.842;2023-04-20T01:28:31;4.85;;;2.22;;
78752;SDS011;68072;51.688;7.842;2023-04-20T01:30:57;3.28;;;2.20;;
78752;SDS011;68072;51.688;7.842;2023-04-20T01:33:22;3.83;;;2.63;;
78752;SDS011;68072;51.688;7.842;2023-04-20T01:35:48;3.65;;;2.33;;
78752;SDS011;68072;51.688;7.842;2023-04-20T01:38:17;3.83;;;2.35;;
78752;SDS011;68072;51.688;7.842;2023-04-20T01:40:43;5.55;;;2.30;;
78752;SDS011;68072;51.688;7.842;2023-04-20T01:43:08;6.32;;;2.78;;
78752;SDS011;68072;51.688;7.842;2023-04-20T01:45:34;9.15;;;2.80;;
78752;SDS011;68072;51.688;7.842;2023-04-20T01:48:00;7.47;;;2.60;;
78752;SDS011;68072;51.688;7.842;2023-04-20T01:50:25;4.68;;;2.25;;
78752;SDS011;68072;51.688;7.842;2023-04-20T01:52:51;5.22;;;2.60;;
78752;SDS011;68072;51.688;7.842;2023-04-20T01:55:16;5.78;;;2.40;;
78752;SDS011;68072;51.688;7.842;2023-04-20T01:57:41;7.75;;;2.70;;
78752;SDS011;68072;51.688;7.842;2023-04-20T02:00:09;4.25;;;2.67;;
78752;SDS011;68072;51.688;7.842;2023-04-20T02:05:00;5.20;;;2.72;;
78752;SDS011;68072;51.688;7.842;2023-04-20T02:07:26;4.40;;;2.67;;
78752;SDS011;68072;51.688;7.842;2023-04-20T02:09:51;3.28;;;2.42;;
78752;SDS011;68072;51.688;7.842;2023-04-20T02:12:17;4.20;;;2.58;;
78752;SDS011;68072;51.688;7.842;2023-04-20T02:14:42;5.22;;;2.75;;
78752;SDS011;68072;51.688;7.842;2023-04-20T02:17:08;5.38;;;2.63;;
78752;SDS011;68072;51.688;7.842;2023-04-20T02:19:33;3.55;;;2.92;;
78752;SDS011;68072;51.688;7.842;2023-04-20T02:21:58;3.45;;;2.53;;
78752;SDS011;68072;51.688;7.842;2023-04-20T02:24:24;5.03;;;2.45;;
78752;SDS011;68072;51.688;7.842;2023-04-20T02:26:49;5.28;;;2.50;;
78752;SDS011;68072;51.688;7.842;2023-04-20T02:29:15;6.72;;;3.33;;
78752;SDS011;68072;51.688;7.842;2023-04-20T02:31:40;6.43;;;3.15;;
78752;SDS011;68072;51.688;7.842;2023-04-20T02:34:06;4.47;;;2.95;;
78752;SDS011;68072;51.688;7.842;2023-04-20T02:36:33;4.75;;;3.70;;
78752;SDS011;68072;51.688;7.842;2023-04-20T02:38:59;5.53;;;3.17;;
78752;SDS011;68072;51.688;7.842;2023-04-20T02:41:25;8.23;;;3.35;;
78752;SDS011;68072;51.688;7.842;2023-04-20T02:43:50;6.13;;;3.20;;
78752;SDS011;68072;51.688;7.842;2023-04-20T02:46:16;4.57;;;3.40;;
78752;SDS011;68072;51.688;7.842;2023-04-20T02:48:42;4.43;;;3.33;;
78752;SDS011;68072;51.688;7.842;2023-04-20T02:51:07;8.75;;;3.95;;
78752;SDS011;68072;51.688;7.842;2023-04-20T02:53:33;3.83;;;3.15;;
78752;SDS011;68072;51.688;7.842;2023-04-20T02:55:59;7.18;;;3.20;;
78752;SDS011;68072;51.688;7.842;2023-04-20T02:58:24;8.25;;;3.28;;
78752;SDS011;68072;51.688;7.842;2023-04-20T03:00:50;5.60;;;3.30;;
78752;SDS011;68072;51.688;7.842;2023-04-20T03:03:16;4.35;;;3.20;;
78752;SDS011;68072;51.688;7.842;2023-04-20T03:05:42;5.03;;;3.00;;
78752;SDS011;68072;51.688;7.842;2023-04-20T03:08:07;4.13;;;3.13;;
78752;SDS011;68072;51.688;7.842;2023-04-20T03:10:33;4.55;;;3.20;;
78752;SDS011;68072;51.688;7.842;2023-04-20T03:12:58;5.38;;;3.70;;
78752;SDS011;68072;51.688;7.842;2023-04-20T03:15:24;4.95;;;3.45;;
78752;SDS011;68072;51.688;7.842;2023-04-20T03:17:49;4.68;;;2.80;;
78752;SDS011;68072;51.688;7.842;2023-04-20T03:20:15;6.95;;;3.35;;
78752;SDS011;68072;51.688;7.842;2023-04-20T03:22:41;5.07;;;3.25;;
78752;SDS011;68072;51.688;7.842;2023-04-20T03:25:06;5.55;;;4.03;;
78752;SDS011;68072;51.688;7.842;2023-04-20T03:27:32;5.75;;;3.22;;
78752;SDS011;68072;51.688;7.842;2023-04-20T03:29:58;6.82;;;3.33;;
78752;SDS011;68072;51.688;7.842;2023-04-20T03:32:24;5.28;;;3.10;;
78752;SDS011;68072;51.688;7.842;2023-04-20T03:34:50;4.72;;;3.78;;
78752;SDS011;68072;51.688;7.842;2023-04-20T03:37:16;3.97;;;3.05;;
78752;SDS011;68072;51.688;7.842;2023-04-20T03:39:41;5.32;;;3.47;;
78752;SDS011;68072;51.688;7.842;2023-04-20T03:42:07;4.47;;;2.97;;
78752;SDS011;68072;51.688;7.842;2023-04-20T03:44:32;6.15;;;3.67;;
78752;SDS011;68072;51.688;7.842;2023-04-20T03:46:57;7.65;;;3.40;;
78752;SDS011;68072;51.688;7.842;2023-04-20T03:49:23;5.63;;;3.15;;
78752;SDS011;68072;51.688;7.842;2023-04-20T03:51:49;4.90;;;3.00;;
78752;SDS011;68072;51.688;7.842;2023-04-20T03:54:15;7.15;;;3.10;;
78752;SDS011;68072;51.688;7.842;2023-04-20T03:56:40;4.60;;;3.05;;
78752;SDS011;68072;51.688;7.842;2023-04-20T03:59:06;7.03;;;3.33;;
78752;SDS011;68072;51.688;7.842;2023-04-20T04:01:31;8.85;;;3.03;;
78752;SDS011;68072;51.688;7.842;2023-04-20T04:03:57;4.63;;;2.88;;
78752;SDS011;68072;51.688;7.842;2023-04-20T04:06:22;4.85;;;2.95;;
78752;SDS011;68072;51.688;7.842;2023-04-20T04:08:47;4.00;;;2.90;;
78752;SDS011;68072;51.688;7.842;2023-04-20T04:11:13;7.40;;;3.50;;
78752;SDS011;68072;51.688;7.842;2023-04-20T04:13:38;6.15;;;3.08;;
78752;SDS011;68072;51.688;7.842;2023-04-20T04:16:04;3.67;;;3.22;;
78752;SDS011;68072;51.688;7.842;2023-04-20T04:18:30;3.83;;;3.30;;
78752;SDS011;68072;51.688;7.842;2023-04-20T04:20:57;4.82;;;3.25;;
78752;SDS011;68072;51.688;7.842;2023-04-20T04:23:22;4.15;;;3.45;;
78752;SDS011;68072;51.688;7.842;2023-04-20T04:25:48;4.28;;;3.20;;
78752;SDS011;68072;51.688;7.842;2023-04-20T04:28:13;6.57;;;3.28;;
78752;SDS011;68072;51.688;7.842;2023-04-20T04:30:40;6.35;;;3.03;;
78752;SDS011;68072;51.688;7.842;2023-04-20T04:33:06;3.80;;;3.40;;
78752;SDS011;68072;51.688;7.842;2023-04-20T04:35:31;3.70;;;3.40;;
78752;SDS011;68072;51.688;7.842;2023-04-20T04:37:58;5.60;;;3.60;;
78752;SDS011;68072;51.688;7.842;2023-04-20T04:40:23;3.55;;;2.97;;
78752;SDS011;68072;51.688;7.842;2023-04-20T04:42:49;3.58;;;3.25;;
78752;SDS011;68072;51.688;7.842;2023-04-20T04:45:15;3.42;;;2.97;;
78752;SDS011;68072;51.688;7.842;2023-04-20T04:47:42;3.67;;;3.25;;
78752;SDS011;68072;51.688;7.842;2023-04-20T04:50:08;4.68;;;3.30;;
78752;SDS011;68072;51.688;7.842;2023-04-20T04:52:34;5.70;;;3.08;;
78752;SDS011;68072;51.688;7.842;2023-04-20T04:55:00;4.60;;;3.60;;
78752;SDS011;68072;51.688;7.842;2023-04-20T04:57:26;4.07;;;3.35;;
78752;SDS011;68072;51.688;7.842;2023-04-20T04:59:52;3.95;;;3.30;;
78752;SDS011;68072;51.688;7.842;2023-04-20T05:02:17;6.10;;;3.55;;
78752;SDS011;68072;51.688;7.842;2023-04-20T05:04:43;4.70;;;3.88;;
78752;SDS011;68072;51.688;7.842;2023-04-20T05:07:08;4.80;;;3.92;;
78752;SDS011;68072;51.688;7.842;2023-04-20T05:09:34;6.05;;;4.13;;
78752;SDS011;68072;51.688;7.842;2023-04-20T05:12:03;4.28;;;3.80;;
78752;SDS011;68072;51.688;7.842;2023-04-20T05:14:31;5.07;;;3.78;;
78752;SDS011;68072;51.688;7.842;2023-04-20T05:16:58;5.93;;;4.55;;
78752;SDS011;68072;51.688;7.842;2023-04-20T05:19:24;5.72;;;4.15;;
78752;SDS011;68072;51.688;7.842;2023-04-20T05:21:49;5.82;;;3.50;;
78752;SDS011;68072;51.688;7.842;2023-04-20T05:24:15;8.00;;;4.38;;
78752;SDS011;68072;51.688;7.842;2023-04-20T05:26:42;9.52;;;4.85;;
78752;SDS011;68072;51.688;7.842;2023-04-20T05:29:07;7.85;;;4.75;;
78752;SDS011;68072;51.688;7.842;2023-04-20T05:31:33;7.20;;;4.35;;
78752;SDS011;68072;51.688;7.842;2023-04-20T05:33:58;6.40;;;4.30;;
78752;SDS011;68072;51.688;7.842;2023-04-20T05:36:24;6.43;;;4.70;;
78752;SDS011;68072;51.688;7.842;2023-04-20T05:38:50;7.10;;;4.93;;
78752;SDS011;68072;51.688;7.842;2023-04-20T05:41:15;6.38;;;4.97;;
78752;SDS011;68072;51.688;7.842;2023-04-20T05:43:41;7.78;;;4.40;;
78752;SDS011;68072;51.688;7.842;2023-04-20T05:46:06;6.00;;;4.13;;
78752;SDS011;68072;51.688;7.842;2023-04-20T05:48:31;6.95;;;4.72;;
78752;SDS011;68072;51.688;7.842;2023-04-20T05:50:57;8.27;;;5.32;;
78752;SDS011;68072;51.688;7.842;2023-04-20T05:53:22;8.35;;;4.90;;
78752;SDS011;68072;51.688;7.842;2023-04-20T05:55:48;8.10;;;5.05;;
78752;SDS011;68072;51.688;7.842;2023-04-20T05:58:14;7.63;;;4.93;;
78752;SDS011;68072;51.688;7.842;2023-04-20T06:00:39;8.07;;;5.22;;
78752;SDS011;68072;51.688;7.842;2023-04-20T06:03:04;9.13;;;5.47;;
78752;SDS011;68072;51.688;7.842;2023-04-20T06:05:30;6.30;;;4.57;;
78752;SDS011;68072;51.688;7.842;2023-04-20T06:07:55;7.13;;;5.10;;
78752;SDS011;68072;51.688;7.842;2023-04-20T06:10:21;5.88;;;4.13;;
78752;SDS011;68072;51.688;7.842;2023-04-20T06:12:46;9.93;;;4.07;;
78752;SDS011;68072;51.688;7.842;2023-04-20T06:15:12;7.38;;;4.72;;
78752;SDS011;68072;51.688;7.842;2023-04-20T06:17:37;9.18;;;5.25;;
78752;SDS011;68072;51.688;7.842;2023-04-20T06:20:05;7.85;;;4.82;;
78752;SDS011;68072;51.688;7.842;2023-04-20T06:22:31;7.78;;;4.78;;
78752;SDS011;68072;51.688;7.842;2023-04-20T06:24:58;7.65;;;5.18;;
78752;SDS011;68072;51.688;7.842;2023-04-20T06:27:24;9.93;;;5.32;;
78752;SDS011;68072;51.688;7.842;2023-04-20T06:29:50;8.95;;;4.88;;
78752;SDS011;68072;51.688;7.842;2023-04-20T06:32:16;6.22;;;4.55;;
78752;SDS011;68072;51.688;7.842;2023-04-20T06:34:41;5.55;;;4.55;;
78752;SDS011;68072;51.688;7.842;2023-04-20T06:37:07;7.90;;;4.10;;
78752;SDS011;68072;51.688;7.842;2023-04-20T06:39:33;6.38;;;4.18;;
78752;SDS011;68072;51.688;7.842;2023-04-20T06:41:59;7.40;;;4.15;;
78752;SDS011;68072;51.688;7.842;2023-04-20T06:44:25;6.07;;;4.53;;
78752;SDS011;68072;51.688;7.842;2023-04-20T06:46:50;7.53;;;4.50;;
78752;SDS011;68072;51.688;7.842;2023-04-20T06:49:15;6.95;;;4.85;;
78752;SDS011;68072;51.688;7.842;2023-04-20T06:51:41;6.05;;;4.32;;
78752;SDS011;68072;51.688;7.842;2023-04-20T06:54:07;5.75;;;4.15;;
78752;SDS011;68072;51.688;7.842;2023-04-20T06:56:32;5.53;;;4.10;;
78752;SDS011;68072;51.688;7.842;2023-04-20T06:58:58;6.57;;;3.97;;
78752;SDS011;68072;51.688;7.842;2023-04-20T07:01:24;5.85;;;3.67;;
78752;SDS011;68072;51.688;7.842;2023-04-20T07:03:49;7.13;;;4.22;;
78752;SDS011;68072;51.688;7.842;2023-04-20T07:06:16;7.55;;;3.92;;
78752;SDS011;68072;51.688;7.842;2023-04-20T07:08:41;6.57;;;4.20;;
78752;SDS011;68072;51.688;7.842;2023-04-20T07:11:07;8.10;;;4.13;;
78752;SDS011;68072;51.688;7.842;2023-04-20T07:13:32;6.75;;;4.50;;
78752;SDS011;68072;51.688;7.842;2023-04-20T07:15:58;6.50;;;4.60;;
78752;SDS011;68072;51.688;7.842;2023-04-20T07:18:23;8.15;;;4.95;;
78752;SDS011;68072;51.688;7.842;2023-04-20T07:20:49;9.90;;;4.95;;
78752;SDS011;68072;51.688;7.842;2023-04-20T07:23:14;7.63;;;4.90;;
78752;SDS011;68072;51.688;7.842;2023-04-20T07:25:39;5.82;;;4.93;;
78752;SDS011;68072;51.688;7.842;2023-04-20T07:28:05;9.25;;;5.55;;
78752;SDS011;68072;51.688;7.842;2023-04-20T07:30:30;8.20;;;5.10;;
78752;SDS011;68072;51.688;7.842;2023-04-20T07:32:56;8.50;;;5.70;;
78752;SDS011;68072;51.688;7.842;2023-04-20T07:35:22;11.70;;;5.35;;
78752;SDS011;68072;51.688;7.842;2023-04-20T07:37:47;9.63;;;5.00;;
78752;SDS011;68072;51.688;7.842;2023-04-20T07:40:12;6.72;;;4.13;;
78752;SDS011;68072;51.688;7.842;2023-04-20T07:42:38;11.60;;;5.28;;
78752;SDS011;68072;51.688;7.842;2023-04-20T07:45:04;9.13;;;5.78;;
78752;SDS011;68072;51.688;7.842;2023-04-20T07:49:56;8.30;;;5.60;;
78752;SDS011;68072;51.688;7.842;2023-04-20T07:52:23;9.35;;;5.07;;
78752;SDS011;68072;51.688;7.842;2023-04-20T07:54:49;7.68;;;5.38;;
78752;SDS011;68072;51.688;7.842;2023-04-20T07:57:17;8.43;;;5.63;;
78752;SDS011;68072;51.688;7.842;2023-04-20T07:59:44;11.18;;;5.50;;
78752;SDS011;68072;51.688;7.842;2023-04-20T08:02:10;7.43;;;5.40;;
78752;SDS011;68072;51.688;7.842;2023-04-20T08:04:40;9.77;;;6.00;;
78752;SDS011;68072;51.688;7.842;2023-04-20T08:07:10;9.98;;;5.72;;
78752;SDS011;68072;51.688;7.842;2023-04-20T08:09:36;10.57;;;5.95;;
78752;SDS011;68072;51.688;7.842;2023-04-20T08:12:11;10.45;;;6.13;;
78752;SDS011;68072;51.688;7.842;2023-04-20T08:14:36;7.30;;;5.13;;
78752;SDS011;68072;51.688;7.842;2023-04-20T08:17:02;8.23;;;5.00;;
78752;SDS011;68072;51.688;7.842;2023-04-20T08:19:27;8.93;;;5.88;;
78752;SDS011;68072;51.688;7.842;2023-04-20T08:21:53;8.50;;;4.47;;
78752;SDS011;68072;51.688;7.842;2023-04-20T08:24:19;9.63;;;6.15;;
78752;SDS011;68072;51.688;7.842;2023-04-20T08:26:52;11.50;;;6.00;;
78752;SDS011;68072;51.688;7.842;2023-04-20T08:29:17;12.45;;;6.18;;
78752;SDS011;68072;51.688;7.842;2023-04-20T08:31:43;6.95;;;4.15;;
78752;SDS011;68072;51.688;7.842;2023-04-20T08:34:08;7.07;;;4.40;;
78752;SDS011;68072;51.688;7.842;2023-04-20T08:36:34;8.20;;;5.10;;
78752;SDS011;68072;51.688;7.842;2023-04-20T08:39:07;7.80;;;5.10;;
78752;SDS011;68072;51.688;7.842;2023-04-20T08:41:37;10.65;;;5.72;;
78752;SDS011;68072;51.688;7.842;2023-04-20T08:44:02;8.95;;;5.07;;
78752;SDS011;68072;51.688;7.842;2023-04-20T08:46:28;8.57;;;5.72;;
78752;SDS011;68072;51.688;7.842;2023-04-20T08:48:54;10.45;;;6.10;;
78752;SDS011;68072;51.688;7.842;2023-04-20T08:51:20;9.73;;;5.72;;
78752;SDS011;68072;51.688;7.842;2023-04-20T08:53:46;11.68;;;5.30;;
78752;SDS011;68072;51.688;7.842;2023-04-20T08:56:11;10.27;;;6.30;;
78752;SDS011;68072;51.688;7.842;2023-04-20T08:58:37;13.80;;;7.13;;
78752;SDS011;68072;51.688;7.842;2023-04-20T09:01:06;13.10;;;6.43;;
78752;SDS011;68072;51.688;7.842;2023-04-20T09:03:33;12.55;;;6.82;;
78752;SDS011;68072;51.688;7.842;2023-04-20T09:06:04;10.30;;;6.18;;
78752;SDS011;68072;51.688;7.842;2023-04-20T09:08:34;10.20;;;6.25;;
78752;SDS011;68072;51.688;7.842;2023-04-20T09:11:01;16.52;;;7.30;;
78752;SDS011;68072;51.688;7.842;2023-04-20T09:13:26;11.65;;;6.28;;
78752;SDS011;68072;51.688;7.842;2023-04-20T09:15:52;11.15;;;6.88;;
78752;SDS011;68072;51.688;7.842;2023-04-20T09:18:17;12.63;;;7.45;;
78752;SDS011;68072;51.688;7.842;2023-04-20T09:20:43;14.60;;;8.75;;
78752;SDS011;68072;51.688;7.842;2023-04-20T09:23:12;10.50;;;7.72;;
78752;SDS011;68072;51.688;7.842;2023-04-20T09:25:39;10.90;;;7.10;;
78752;SDS011;68072;51.688;7.842;2023-04-20T09:28:06;10.82;;;7.80;;
78752;SDS011;68072;51.688;7.842;2023-04-20T09:30:42;10.15;;;6.55;;
78752;SDS011;68072;51.688;7.842;2023-04-20T09:33:09;9.27;;;6.45;;
78752;SDS011;68072;51.688;7.842;2023-04-20T09:35:40;8.10;;;5.68;;
78752;SDS011;68072;51.688;7.842;2023-04-20T09:38:06;9.57;;;6.63;;
78752;SDS011;68072;51.688;7.842;2023-04-20T09:40:33;8.00;;;6.22;;
78752;SDS011;68072;51.688;7.842;2023-04-20T09:43:02;8.82;;;6.30;;
78752;SDS011;68072;51.688;7.842;2023-04-20T09:45:31;8.05;;;5.35;;
78752;SDS011;68072;51.688;7.842;2023-04-20T09:47:56;8.65;;;6.10;;
78752;SDS011;68072;51.688;7.842;2023-04-20T09:50:22;7.70;;;6.07;;
78752;SDS011;68072;51.688;7.842;2023-04-20T09:52:47;9.23;;;6.40;;
78752;SDS011;68072;51.688;7.842;2023-04-20T09:55:13;10.10;;;7.07;;
78752;SDS011;68072;51.688;7.842;2023-04-20T09:57:39;8.75;;;6.25;;
78752;SDS011;68072;51.688;7.842;2023-04-20T10:00:05;8.30;;;5.57;;
78752;SDS011;68072;51.688;7.842;2023-04-20T10:02:32;7.95;;;5.35;;
78752;SDS011;68072;51.688;7.842;2023-04-20T10:04:58;9.35;;;6.63;;
78752;SDS011;68072;51.688;7.842;2023-04-20T10:07:27;9.35;;;6.60;;
78752;SDS011;68072;51.688;7.842;2023-04-20T10:10:10;9.35;;;5.55;;
78752;SDS011;68072;51.688;7.842;2023-04-20T10:12:49;7.88;;;5.68;;
78752;SDS011;68072;51.688;7.842;2023-04-20T10:15:15;9.23;;;6.00;;
78752;SDS011;68072;51.688;7.842;2023-04-20T10:17:41;7.90;;;5.80;;
78752;SDS011;68072;51.688;7.842;2023-04-20T10:20:27;7.00;;;5.63;;
78752;SDS011;68072;51.688;7.842;2023-04-20T10:22:53;6.68;;;5.43;;
78752;SDS011;68072;51.688;7.842;2023-04-20T10:25:21;7.15;;;5.60;;
78752;SDS011;68072;51.688;7.842;2023-04-20T10:27:55;6.65;;;4.53;;
78752;SDS011;68072;51.688;7.842;2023-04-20T10:30:25;8.65;;;5.80;;
78752;SDS011;68072;51.688;7.842;2023-04-20T10:33:01;7.55;;;5.28;;
78752;SDS011;68072;51.688;7.842;2023-04-20T10:35:27;8.15;;;5.85;;
78752;SDS011;68072;51.688;7.842;2023-04-20T10:37:54;7.32;;;5.20;;
78752;SDS011;68072;51.688;7.842;2023-04-20T10:40:24;7.45;;;5.30;;
78752;SDS011;68072;51.688;7.842;2023-04-20T10:42:53;6.78;;;4.65;;
78752;SDS011;68072;51.688;7.842;2023-04-20T10:45:18;6.30;;;4.72;;
78752;SDS011;68072;51.688;7.842;2023-04-20T10:47:46;7.35;;;5.25;;
78752;SDS011;68072;51.688;7.842;2023-04-20T10:50:12;5.90;;;5.07;;
78752;SDS011;68072;51.688;7.842;2023-04-20T10:52:39;6.93;;;5.05;;
78752;SDS011;68072;51.688;7.842;2023-04-20T10:55:16;7.38;;;5.03;;
78752;SDS011;68072;51.688;7.842;2023-04-20T10:57:45;7.85;;;5.60;;
78752;SDS011;68072;51.688;7.842;2023-04-20T11:00:17;7.13;;;4.60;;
78752;SDS011;68072;51.688;7.842;2023-04-20T11:02:50;6.72;;;5.25;;
78752;SDS011;68072;51.688;7.842;2023-04-20T11:05:17;8.30;;;5.15;;
78752;SDS011;68072;51.688;7.842;2023-04-20T11:07:49;7.10;;;5.03;;
78752;SDS011;68072;51.688;7.842;2023-04-20T11:10:15;8.50;;;5.50;;
78752;SDS011;68072;51.688;7.842;2023-04-20T11:12:41;6.88;;;5.32;;
78752;SDS011;68072;51.688;7.842;2023-04-20T11:15:07;8.07;;;5.10;;
78752;SDS011;68072;51.688;7.842;2023-04-20T11:17:37;9.07;;;6.32;;
78752;SDS011;68072;51.688;7.842;2023-04-20T11:20:06;8.60;;;5.35;;
78752;SDS011;68072;51.688;7.842;2023-04-20T11:22:36;8.35;;;5.45;;
78752;SDS011;68072;51.688;7.842;2023-04-20T11:25:05;7.82;;;5.90;;
78752;SDS011;68072;51.688;7.842;2023-04-20T11:27:35;9.00;;;5.45;;
78752;SDS011;68072;51.688;7.842;2023-04-20T11:30:01;7.13;;;5.55;;
78752;SDS011;68072;51.688;7.842;2023-04-20T11:32:33;8.18;;;5.63;;
78752;SDS011;68072;51.688;7.842;2023-04-20T11:34:59;7.95;;;5.43;;
78752;SDS011;68072;51.688;7.842;2023-04-20T11:37:25;9.05;;;5.60;;
78752;SDS011;68072;51.688;7.842;2023-04-20T11:40:00;6.82;;;5.07;;
78752;SDS011;68072;51.688;7.842;2023-04-20T11:42:33;8.95;;;5.72;;
78752;SDS011;68072;51.688;7.842;2023-04-20T11:44:59;7.82;;;5.85;;
78752;SDS011;68072;51.688;7.842;2023-04-20T11:47:25;8.77;;;5.80;;
78752;SDS011;68072;51.688;7.842;2023-04-20T11:49:51;7.97;;;6.00;;
78752;SDS011;68072;51.688;7.842;2023-04-20T11:52:16;7.15;;;6.03;;
78752;SDS011;68072;51.688;7.842;2023-04-20T11:54:42;7.72;;;5.93;;
78752;SDS011;68072;51.688;7.842;2023-04-20T11:57:07;9.73;;;6.40;;
78752;SDS011;68072;51.688;7.842;2023-04-20T11:59:33;7.25;;;5.40;;
78752;SDS011;68072;51.688;7.842;2023-04-20T12:01:58;7.68;;;5.55;;
78752;SDS011;68072;51.688;7.842;2023-04-20T12:04:27;8.32;;;5.57;;
78752;SDS011;68072;51.688;7.842;2023-04-20T12:06:57;10.02;;;6.22;;
78752;SDS011;68072;51.688;7.842;2023-04-20T12:09:26;7.97;;;5.38;;
78752;SDS011;68072;51.688;7.842;2023-04-20T12:11:52;8.23;;;5.63;;
78752;SDS011;68072;51.688;7.842;2023-04-20T12:14:17;10.55;;;6.13;;
78752;SDS011;68072;51.688;7.842;2023-04-20T12:16:43;9.68;;;5.85;;
78752;SDS011;68072;51.688;7.842;2023-04-20T12:19:08;9.23;;;5.85;;
78752;SDS011;68072;51.688;7.842;2023-04-20T12:21:34;8.50;;;5.68;;
78752;SDS011;68072;51.688;7.842;2023-04-20T12:24:00;8.65;;;6.32;;
78752;SDS011;68072;51.688;7.842;2023-04-20T12:26:26;7.18;;;5.85;;
78752;SDS011;68072;51.688;7.842;2023-04-20T12:28:51;8.98;;;6.28;;
78752;SDS011;68072;51.688;7.842;2023-04-20T12:31:17;7.13;;;5.63;;
78752;SDS011;68072;51.688;7.842;2023-04-20T12:33:43;6.65;;;5.60;;
78752;SDS011;68072;51.688;7.842;2023-04-20T12:36:08;7.53;;;5.80;;
78752;SDS011;68072;51.688;7.842;2023-04-20T12:38:34;8.05;;;5.68;;
78752;SDS011;68072;51.688;7.842;2023-04-20T12:41:00;7.72;;;5.90;;
78752;SDS011;68072;51.688;7.842;2023-04-20T12:43:26;6.93;;;5.13;;
78752;SDS011;68072;51.688;7.842;2023-04-20T12:48:18;6.60;;;5.10;;
78752;SDS011;68072;51.688;7.842;2023-04-20T12:50:43;6.55;;;5.10;;
78752;SDS011;68072;51.688;7.842;2023-04-20T12:53:08;6.85;;;4.85;;
78752;SDS011;68072;51.688;7.842;2023-04-20T12:55:34;6.25;;;4.95;;
78752;SDS011;68072;51.688;7.842;2023-04-20T12:58:00;7.60;;;6.15;;
78752;SDS011;68072;51.688;7.842;2023-04-20T13:00:26;7.75;;;6.20;;
78752;SDS011;68072;51.688;7.842;2023-04-20T13:02:51;6.28;;;5.50;;
78752;SDS011;68072;51.688;7.842;2023-04-20T13:05:17;7.97;;;5.82;;
78752;SDS011;68072;51.688;7.842;2023-04-20T13:07:43;9.07;;;6.45;;
78752;SDS011;68072;51.688;7.842;2023-04-20T13:10:09;8.18;;;6.28;;
78752;SDS011;68072;51.688;7.842;2023-04-20T13:12:35;10.13;;;5.95;;
78752;SDS011;68072;51.688;7.842;2023-04-20T13:15:00;8.32;;;5.47;;
78752;SDS011;68072;51.688;7.842;2023-04-20T13:17:26;8.68;;;5.13;;
78752;SDS011;68072;51.688;7.842;2023-04-20T13:19:51;7.53;;;5.47;;
78752;SDS011;68072;51.688;7.842;2023-04-20T13:22:17;5.72;;;4.95;;
78752;SDS011;68072;51.688;7.842;2023-04-20T13:24:42;7.82;;;5.60;;
78752;SDS011;68072;51.688;7.842;2023-04-20T13:27:08;6.22;;;5.10;;
78752;SDS011;68072;51.688;7.842;2023-04-20T13:29:33;8.80;;;5.20;;
78752;SDS011;68072;51.688;7.842;2023-04-20T13:31:58;6.82;;;5.53;;
78752;SDS011;68072;51.688;7.842;2023-04-20T13:34:24;6.30;;;5.18;;
78752;SDS011;68072;51.688;7.842;2023-04-20T13:36:49;8.00;;;5.25;;
78752;SDS011;68072;51.688;7.842;2023-04-20T13:39:15;7.80;;;5.55;;
78752;SDS011;68072;51.688;7.842;2023-04-20T13:41:43;7.00;;;5.07;;
78752;SDS011;68072;51.688;7.842;2023-04-20T13:44:08;7.32;;;5.60;;
78752;SDS011;68072;51.688;7.842;2023-04-20T13:46:40;6.63;;;4.93;;
78752;SDS011;68072;51.688;7.842;2023-04-20T13:49:07;6.57;;;5.03;;
78752;SDS011;68072;51.688;7.842;2023-04-20T13:51:32;7.13;;;4.80;;
78752;SDS011;68072;51.688;7.842;2023-04-20T13:53:57;5.30;;;4.03;;
78752;SDS011;68072;51.688;7.842;2023-04-20T13:56:23;6.60;;;4.53;;
78752;SDS011;68072;51.688;7.842;2023-04-20T13:58:49;5.75;;;4.60;;
78752;SDS011;68072;51.688;7.842;2023-04-20T14:01:14;5.53;;;4.22;;
78752;SDS011;68072;51.688;7.842;2023-04-20T14:03:40;5.20;;;4.07;;
78752;SDS011;68072;51.688;7.842;2023-04-20T14:06:06;4.65;;;3.80;;
78752;SDS011;68072;51.688;7.842;2023-04-20T14:08:32;5.45;;;4.00;;
78752;SDS011;68072;51.688;7.842;2023-04-20T14:10:57;5.10;;;3.75;;
78752;SDS011;68072;51.688;7.842;2023-04-20T14:13:23;5.05;;;3.72;;
78752;SDS011;68072;51.688;7.842;2023-04-20T14:15:48;4.40;;;3.72;;
78752;SDS011;68072;51.688;7.842;2023-04-20T14:18:14;6.28;;;4.38;;
78752;SDS011;68072;51.688;7.842;2023-04-20T14:20:40;4.82;;;3.72;;
78752;SDS011;68072;51.688;7.842;2023-04-20T14:23:05;4.43;;;3.75;;
78752;SDS011;68072;51.688;7.842;2023-04-20T14:25:31;5.03;;;3.90;;
78752;SDS011;68072;51.688;7.842;2023-04-20T14:27:56;4.30;;;3.70;;
78752;SDS011;68072;51.688;7.842;2023-04-20T14:30:22;5.78;;;4.07;;
78752;SDS011;68072;51.688;7.842;2023-04-20T14:32:57;3.85;;;3.22;;
78752;SDS011;68072;51.688;7.842;2023-04-20T14:35:24;4.45;;;3.67;;
78752;SDS011;68072;51.688;7.842;2023-04-20T14:37:50;5.35;;;3.50;;
78752;SDS011;68072;51.688;7.842;2023-04-20T14:40:16;6.65;;;3.83;;
78752;SDS011;68072;51.688;7.842;2023-04-20T14:42:44;4.60;;;4.13;;
78752;SDS011;68072;51.688;7.842;2023-04-20T14:45:10;4.15;;;3.60;;
78752;SDS011;68072;51.688;7.842;2023-04-20T14:47:36;3.70;;;3.40;;
78752;SDS011;68072;51.688;7.842;2023-04-20T14:50:02;4.35;;;3.95;;
78752;SDS011;68072;51.688;7.842;2023-04-20T14:52:27;3.65;;;3.35;;
78752;SDS011;68072;51.688;7.842;2023-04-20T14:54:53;3.83;;;3.42;;